Photometre #742[NE_1.6_Dp] OHP_OBSERVATOIRE AOT

File : 20190923_742.hum

23/09/2019,06:14:56,TEMP=11.4,BA=5.64,STAT.A,ExtBa=13.17
23/09/2019,06:18:30,TEMP=11.8,BA=5.64,STAT.A,ExtBa=13.10
23/09/2019,06:22:41,TEMP=12.1,BA=5.52,STAT.A,ExtBa=13.06
23/09/2019,06:27:39,TEMP=12.3,BA=5.52,STAT.A,ExtBa=12.99
23/09/2019,06:33:39,TEMP=12.7,BA=5.64,STAT.A,ExtBa=13.04
23/09/2019,06:41:02,TEMP=13.1,BA=5.64,STAT.A,ExtBa=13.11
23/09/2019,06:50:23,TEMP=13.9,BA=5.64,STAT.B,ExtBa=13.16
23/09/2019,06:58:38,TEMP=14.7,BA=5.64,STAT.A,ExtBa=12.66
23/09/2019,07:00:34,TEMP=15.0,BA=5.52,STAT.A,ExtBa=12.73
23/09/2019,07:05:32,TEMP=14.8,BA=5.52,STAT.A,ExtBa=12.88
23/09/2019,07:11:58,TEMP=14.9,BA=5.64,STAT.A,ExtBa=13.00
23/09/2019,07:19:21,TEMP=15.2,BA=5.64,STAT.C,ExtBa=13.11
23/09/2019,07:40:46,TEMP=17.7,BA=5.48,STAT.A,ExtBa=12.78
23/09/2019,07:42:44,TEMP=17.5,BA=5.48,STAT.A,ExtBa=12.81
23/09/2019,07:50:22,TEMP=16.8,BA=5.64,STAT.A,ExtBa=13.05
23/09/2019,08:05:27,TEMP=17.6,BA=5.64,STAT.A,ExtBa=13.26
23/09/2019,08:24:41,TEMP=18.7,BA=5.64,STAT.B,ExtBa=13.35
23/09/2019,08:32:36,TEMP=19.4,BA=5.48,STAT.F,ExtBa=12.75
23/09/2019,08:54:19,TEMP=22.5,BA=5.48,STAT.D,ExtBa=12.81
23/09/2019,09:00:16,TEMP=21.5,BA=5.60,STAT.D,ExtBa=13.02
23/09/2019,09:15:16,TEMP=22.1,BA=5.64,STAT.D,ExtBa=13.25
23/09/2019,09:30:18,TEMP=22.0,BA=5.60,STAT.F,ExtBa=13.28
23/09/2019,09:56:26,TEMP=22.6,BA=5.48,STAT.D,ExtBa=13.04
23/09/2019,10:00:16,TEMP=22.5,BA=5.56,STAT.D,ExtBa=13.03
23/09/2019,10:15:16,TEMP=22.3,BA=5.60,STAT.D,ExtBa=13.25
23/09/2019,10:30:18,TEMP=22.0,BA=5.56,STAT.F,ExtBa=13.27
23/09/2019,10:52:46,TEMP=22.4,BA=5.48,STAT.D,ExtBa=12.82
23/09/2019,11:00:16,TEMP=20.8,BA=5.56,STAT.D,ExtBa=13.09
23/09/2019,11:15:16,TEMP=21.5,BA=5.60,STAT.D,ExtBa=13.25
23/09/2019,11:30:18,TEMP=21.9,BA=5.56,STAT.F,ExtBa=13.28
23/09/2019,11:53:14,TEMP=24.4,BA=5.48,STAT.D,ExtBa=12.81
23/09/2019,12:00:16,TEMP=23.2,BA=5.56,STAT.D,ExtBa=13.07
23/09/2019,12:15:16,TEMP=22.9,BA=5.60,STAT.D,ExtBa=13.25
23/09/2019,12:30:18,TEMP=23.3,BA=5.56,STAT.F,ExtBa=13.26
23/09/2019,12:51:59,TEMP=25.7,BA=5.44,STAT.D,ExtBa=12.81
23/09/2019,13:00:16,TEMP=24.3,BA=5.56,STAT.D,ExtBa=13.09
23/09/2019,13:15:16,TEMP=24.1,BA=5.60,STAT.D,ExtBa=13.25
23/09/2019,13:30:18,TEMP=23.1,BA=5.56,STAT.F,ExtBa=13.25
23/09/2019,13:52:09,TEMP=25.8,BA=5.44,STAT.D,ExtBa=12.80
23/09/2019,14:00:16,TEMP=24.3,BA=5.56,STAT.D,ExtBa=13.08
23/09/2019,14:15:16,TEMP=22.6,BA=5.60,STAT.D,ExtBa=13.23
23/09/2019,14:30:17,TEMP=22.1,BA=5.56,STAT.F,ExtBa=13.26
23/09/2019,14:52:19,TEMP=23.9,BA=5.44,STAT.B,ExtBa=12.78
23/09/2019,15:00:48,TEMP=22.8,BA=5.44,STAT.A,ExtBa=12.76
23/09/2019,15:10:12,TEMP=21.8,BA=5.52,STAT.A,ExtBa=13.09
23/09/2019,15:22:26,TEMP=21.0,BA=5.60,STAT.A,ExtBa=13.22
23/09/2019,15:32:36,TEMP=20.1,BA=5.60,STAT.A,ExtBa=13.25
23/09/2019,15:41:13,TEMP=19.6,BA=5.60,STAT.C,ExtBa=13.27
23/09/2019,15:48:36,TEMP=19.2,BA=5.60,STAT.A,ExtBa=13.28
23/09/2019,15:55:02,TEMP=19.0,BA=5.48,STAT.A,ExtBa=13.28
23/09/2019,16:00:42,TEMP=18.8,BA=5.60,STAT.A,ExtBa=13.17
23/09/2019,16:05:42,TEMP=18.7,BA=5.60,STAT.A,ExtBa=13.20
23/09/2019,16:10:11,TEMP=18.6,BA=5.52,STAT.B,ExtBa=13.21
23/09/2019,16:19:30,TEMP=18.8,BA=5.52,STAT.A,ExtBa=13.27
23/09/2019,16:26:53,TEMP=19.3,BA=5.48,STAT.A,ExtBa=13.26
23/09/2019,16:32:53,TEMP=19.4,BA=5.60,STAT.A,ExtBa=13.24
23/09/2019,16:41:57,TEMP=19.1,BA=5.52,STAT.A,ExtBa=13.26
23/09/2019,16:44:14,TEMP=19.5,BA=5.52,STAT.A,ExtBa=13.04
23/09/2019,16:46:23,TEMP=19.5,BA=5.52,STAT.A,ExtBa=12.99